createdAt,value
2022-10-14T00:01:21.531Z,5.68
2022-10-14T00:03:48.871Z,6.13
2022-10-14T00:06:23.764Z,7.85
2022-10-14T00:08:50.730Z,6.35
2022-10-14T00:11:28.106Z,8.70
2022-10-14T00:13:58.120Z,8.75
2022-10-14T00:16:31.315Z,7.40
2022-10-14T00:18:58.845Z,9.45
2022-10-14T00:21:27.496Z,10.90
2022-10-14T00:23:55.042Z,8.88
2022-10-14T00:26:32.105Z,8.80
2022-10-14T00:29:00.786Z,12.60
2022-10-14T00:31:32.190Z,8.20
2022-10-14T00:33:59.302Z,11.45
2022-10-14T00:36:26.543Z,11.55
2022-10-14T00:38:54.915Z,8.55
2022-10-14T00:41:34.111Z,9.07
2022-10-14T00:44:13.124Z,10.85
2022-10-14T00:46:46.007Z,5.38
2022-10-14T00:49:27.737Z,7.07
2022-10-14T00:52:11.162Z,11.75
2022-10-14T00:54:50.751Z,9.65
2022-10-14T00:57:18.585Z,11.85
2022-10-14T00:59:46.468Z,10.05
2022-10-14T01:02:14.004Z,10.63
2022-10-14T01:04:43.621Z,8.15
2022-10-14T01:07:52.187Z,10.02
2022-10-14T01:10:46.010Z,10.90
2022-10-14T01:13:34.828Z,10.75
2022-10-14T01:16:26.009Z,9.95
2022-10-14T01:19:37.580Z,11.90
2022-10-14T01:22:17.658Z,8.23
2022-10-14T01:25:19.596Z,7.93
2022-10-14T01:28:43.713Z,10.57
2022-10-14T01:31:19.425Z,10.70
2022-10-14T01:33:51.278Z,8.98
2022-10-14T01:36:29.459Z,9.45
2022-10-14T01:39:08.260Z,13.70
2022-10-14T01:41:57.605Z,11.63
2022-10-14T01:44:27.052Z,19.77
2022-10-14T01:46:55.869Z,9.93
2022-10-14T01:49:42.145Z,7.78
2022-10-14T01:52:16.164Z,8.88
2022-10-14T01:54:47.172Z,8.85
2022-10-14T01:57:22.114Z,9.20
2022-10-14T01:59:52.386Z,8.18
2022-10-14T02:02:20.166Z,5.80
2022-10-14T02:04:47.339Z,8.73
2022-10-14T02:07:29.382Z,8.18
2022-10-14T02:10:20.785Z,5.88
2022-10-14T02:13:29.991Z,8.73
2022-10-14T02:16:24.044Z,8.80
2022-10-14T02:19:01.995Z,6.47
2022-10-14T02:21:46.934Z,9.77
2022-10-14T02:24:36.020Z,8.63
2022-10-14T02:27:09.982Z,9.57
2022-10-14T02:29:41.735Z,7.85
2022-10-14T02:34:38.714Z,8.48
2022-10-14T02:37:09.902Z,9.77
2022-10-14T02:39:43.621Z,9.50
2022-10-14T02:42:10.647Z,7.72
2022-10-14T02:44:37.588Z,7.90
2022-10-14T02:47:05.010Z,6.97
2022-10-14T02:49:32.058Z,9.25
2022-10-14T02:51:59.769Z,11.45
2022-10-14T02:54:26.693Z,8.98
2022-10-14T02:56:53.722Z,6.90
2022-10-14T02:59:24.148Z,7.40
2022-10-14T03:01:51.198Z,8.52
2022-10-14T03:04:19.896Z,9.93
2022-10-14T03:06:46.870Z,20.08
2022-10-14T03:09:14.441Z,10.75
2022-10-14T03:11:41.912Z,17.65
2022-10-14T03:14:14.547Z,7.03
2022-10-14T03:16:42.582Z,7.82
2022-10-14T03:19:12.374Z,7.63
2022-10-14T03:21:44.386Z,6.70
2022-10-14T03:24:17.673Z,6.60
2022-10-14T03:26:45.618Z,10.35
2022-10-14T03:29:12.944Z,7.63
2022-10-14T03:32:02.884Z,8.90
2022-10-14T03:34:35.087Z,6.95
2022-10-14T03:37:06.463Z,9.75
2022-10-14T03:39:37.787Z,6.70
2022-10-14T03:42:07.027Z,7.38
2022-10-14T03:44:41.314Z,5.57
2022-10-14T03:47:28.883Z,4.95
2022-10-14T03:49:55.979Z,5.35
2022-10-14T03:52:32.204Z,6.13
2022-10-14T03:55:16.100Z,8.43
2022-10-14T03:57:45.275Z,6.65
2022-10-14T04:00:13.881Z,7.47
2022-10-14T04:02:41.962Z,6.68
2022-10-14T04:05:32.550Z,6.82
2022-10-14T04:08:01.761Z,6.18
2022-10-14T04:10:29.126Z,5.72
2022-10-14T04:12:56.693Z,6.43
2022-10-14T04:15:30.709Z,7.32
2022-10-14T04:18:26.917Z,11.52
2022-10-14T04:21:01.810Z,5.47
2022-10-14T04:23:29.471Z,9.05
2022-10-14T04:26:12.241Z,7.50
2022-10-14T04:28:39.979Z,7.38
2022-10-14T04:31:14.663Z,6.25
2022-10-14T04:33:52.003Z,7.25
2022-10-14T04:36:25.475Z,7.15
2022-10-14T04:38:52.563Z,5.78
2022-10-14T04:41:19.547Z,10.98
2022-10-14T04:43:48.817Z,4.65
2022-10-14T04:46:38.616Z,5.88
2022-10-14T04:49:05.719Z,7.05
2022-10-14T04:51:38.657Z,4.10
2022-10-14T04:54:30.876Z,5.72
2022-10-14T04:57:00.216Z,4.72
2022-10-14T04:59:29.429Z,5.07
2022-10-14T05:01:56.473Z,5.43
2022-10-14T05:04:31.091Z,7.15
2022-10-14T05:06:59.199Z,5.57
2022-10-14T05:09:26.302Z,8.52
2022-10-14T05:11:53.311Z,5.88
2022-10-14T05:14:23.604Z,9.65
2022-10-14T05:17:01.627Z,6.35
2022-10-14T05:19:31.548Z,7.18
2022-10-14T05:21:58.463Z,5.88
2022-10-14T05:24:32.073Z,5.70
2022-10-14T05:26:59.095Z,4.53
2022-10-14T05:29:28.266Z,5.82
2022-10-14T05:31:56.655Z,6.82
2022-10-14T05:34:37.914Z,4.88
2022-10-14T05:37:08.813Z,5.65
2022-10-14T05:39:44.174Z,9.57
2022-10-14T05:42:11.934Z,4.85
2022-10-14T05:44:39.962Z,5.18
2022-10-14T05:47:07.424Z,3.80
2022-10-14T05:49:35.225Z,8.55
2022-10-14T05:52:04.835Z,6.63
2022-10-14T05:54:33.128Z,4.25
2022-10-14T05:57:00.214Z,7.07
2022-10-14T05:59:29.656Z,5.43
2022-10-14T06:01:57.873Z,7.50
2022-10-14T06:04:25.928Z,5.38
2022-10-14T06:06:53.069Z,4.00
2022-10-14T06:09:20.533Z,6.78
2022-10-14T06:11:47.622Z,6.32
2022-10-14T06:14:15.341Z,5.95
2022-10-14T06:16:42.381Z,7.95
2022-10-14T06:19:09.470Z,4.40
2022-10-14T06:21:38.008Z,6.78
2022-10-14T06:24:05.211Z,6.88
2022-10-14T06:26:32.615Z,4.72
2022-10-14T06:28:59.615Z,5.38
2022-10-14T06:31:31.281Z,6.57
2022-10-14T06:34:00.819Z,13.27
2022-10-14T06:36:28.447Z,6.63
2022-10-14T06:38:55.427Z,6.85
2022-10-14T06:41:22.488Z,7.05
2022-10-14T06:43:49.507Z,7.55
2022-10-14T06:46:16.461Z,8.02
2022-10-14T06:48:48.047Z,8.35
2022-10-14T06:51:17.116Z,7.32
2022-10-14T06:53:44.161Z,6.28
2022-10-14T06:56:11.971Z,8.50
2022-10-14T06:58:38.949Z,4.80
2022-10-14T07:01:08.056Z,6.03
2022-10-14T07:03:36.811Z,8.63
2022-10-14T07:06:06.395Z,7.10
2022-10-14T07:08:33.851Z,7.65
2022-10-14T07:11:00.913Z,8.82
2022-10-14T07:13:28.071Z,7.60
2022-10-14T07:15:55.065Z,10.23
2022-10-14T07:18:22.277Z,6.03
2022-10-14T07:20:49.298Z,7.75
2022-10-14T07:23:16.765Z,11.85
2022-10-14T07:25:44.122Z,5.95
2022-10-14T07:28:11.127Z,7.30
2022-10-14T07:30:38.293Z,7.97
2022-10-14T07:33:05.360Z,7.22
2022-10-14T07:35:32.382Z,10.40
2022-10-14T07:38:00.172Z,5.88
2022-10-14T07:40:27.755Z,10.30
2022-10-14T07:42:54.913Z,7.50
2022-10-14T07:45:22.188Z,8.05
2022-10-14T07:47:50.982Z,10.40
2022-10-14T07:50:18.243Z,8.90
2022-10-14T07:52:45.617Z,5.10
2022-10-14T07:55:12.749Z,7.07
2022-10-14T07:57:39.764Z,8.88
2022-10-14T08:00:08.206Z,14.55
2022-10-14T08:02:41.193Z,5.80
2022-10-14T08:05:39.025Z,6.55
2022-10-14T08:07:55.324Z,13.15
2022-10-14T08:10:22.464Z,9.63
2022-10-14T08:12:50.193Z,7.85
2022-10-14T08:15:17.221Z,5.35
2022-10-14T08:17:44.200Z,8.10
2022-10-14T08:20:12.709Z,8.43
2022-10-14T08:22:39.979Z,10.50
2022-10-14T08:25:07.528Z,10.77
2022-10-14T08:27:34.638Z,6.75
2022-10-14T08:30:04.030Z,9.13
2022-10-14T08:32:33.050Z,12.85
2022-10-14T08:35:00.098Z,7.20
2022-10-14T08:37:27.139Z,8.88
2022-10-14T08:39:54.112Z,7.63
2022-10-14T08:42:53.659Z,7.22
2022-10-14T08:45:40.075Z,5.60
2022-10-14T08:48:18.632Z,7.18
2022-10-14T08:51:03.315Z,11.13
2022-10-14T08:53:40.939Z,6.50
2022-10-14T08:56:09.672Z,6.75
2022-10-14T08:58:50.304Z,10.65
2022-10-14T09:01:33.661Z,7.53
2022-10-14T09:04:06.869Z,7.13
2022-10-14T09:06:36.775Z,5.82
2022-10-14T09:09:14.695Z,5.00
2022-10-14T09:11:46.231Z,5.53
2022-10-14T09:14:20.034Z,8.38
2022-10-14T09:16:54.207Z,3.85
2022-10-14T09:19:32.092Z,8.80
2022-10-14T09:22:01.271Z,4.97
2022-10-14T09:24:32.259Z,3.42
2022-10-14T09:27:06.741Z,4.15
2022-10-14T09:29:45.387Z,4.20
2022-10-14T09:32:31.900Z,3.08
2022-10-14T09:34:59.924Z,8.15
2022-10-14T09:37:31.400Z,5.57
2022-10-14T09:40:03.528Z,4.03
2022-10-14T09:42:52.984Z,7.53
2022-10-14T09:45:22.851Z,10.02
2022-10-14T09:47:58.841Z,5.45
2022-10-14T09:50:31.454Z,6.47
2022-10-14T09:53:24.643Z,7.43
2022-10-14T10:07:23.198Z,7.68
2022-10-14T10:20:21.941Z,7.03
2022-10-14T10:23:25.727Z,7.55
2022-10-14T10:25:53.238Z,5.88
2022-10-14T10:28:33.004Z,7.07
2022-10-14T10:31:07.676Z,5.00
2022-10-14T10:34:40.588Z,3.53
2022-10-14T10:37:27.216Z,3.70
2022-10-14T10:40:16.752Z,9.57
2022-10-14T10:43:25.689Z,8.07
2022-10-14T10:46:33.157Z,4.72
2022-10-14T10:49:34.684Z,6.82
2022-10-14T10:52:16.158Z,5.40
2022-10-14T10:55:13.873Z,4.60
2022-10-14T10:58:03.742Z,5.72
2022-10-14T11:00:47.339Z,4.28
2022-10-14T11:06:15.745Z,6.47
2022-10-14T11:09:27.566Z,3.60
2022-10-14T11:13:00.244Z,6.80
2022-10-14T11:15:54.281Z,2.80
2022-10-14T11:18:37.338Z,6.25
2022-10-14T11:21:55.350Z,5.65
2022-10-14T11:25:25.148Z,9.90
2022-10-14T11:38:12.873Z,3.78
2022-10-14T11:41:21.930Z,4.03
2022-10-14T11:47:34.978Z,6.47
2022-10-14T11:51:22.082Z,3.47
2022-10-14T11:58:45.295Z,3.78
2022-10-14T12:02:14.795Z,7.38
2022-10-14T12:05:31.453Z,4.80
2022-10-14T12:09:13.861Z,5.00
2022-10-14T12:11:53.344Z,7.68
2022-10-14T12:14:34.079Z,9.48
2022-10-14T12:17:08.158Z,15.93
2022-10-14T12:19:37.323Z,6.03
2022-10-14T12:22:20.978Z,10.48
2022-10-14T12:24:55.803Z,4.75
2022-10-14T12:27:26.169Z,5.00
2022-10-14T12:29:58.553Z,4.90
2022-10-14T12:32:32.055Z,9.32
2022-10-14T12:35:01.631Z,5.28
2022-10-14T12:37:38.140Z,5.22
2022-10-14T12:40:06.768Z,5.88
2022-10-14T12:42:53.849Z,8.15
2022-10-14T12:45:23.869Z,7.15
2022-10-14T12:48:24.528Z,7.25
2022-10-14T12:51:16.432Z,6.00
2022-10-14T12:54:04.970Z,5.65
2022-10-14T12:57:05.602Z,8.23
2022-10-14T12:59:40.100Z,4.23
2022-10-14T13:02:35.625Z,5.63
2022-10-14T13:05:10.442Z,5.07
2022-10-14T13:07:50.784Z,4.05
2022-10-14T13:10:44.930Z,4.35
2022-10-14T13:13:38.569Z,4.38
2022-10-14T13:18:48.419Z,5.40
2022-10-14T13:21:41.672Z,3.97
2022-10-14T13:24:23.823Z,3.63
2022-10-14T13:26:54.250Z,3.78
2022-10-14T13:29:21.611Z,3.85
2022-10-14T13:32:22.681Z,3.08
2022-10-14T13:35:17.932Z,3.03
2022-10-14T13:38:03.016Z,4.03
2022-10-14T13:40:45.625Z,4.13
2022-10-14T13:43:26.824Z,3.42
2022-10-14T13:46:24.588Z,3.78
2022-10-14T13:48:56.980Z,3.05
2022-10-14T13:51:53.175Z,2.60
2022-10-14T14:12:36.949Z,1.50
2022-10-14T14:15:05.109Z,3.17
2022-10-14T14:17:33.390Z,4.70
2022-10-14T14:20:00.422Z,2.17
2022-10-14T14:22:30.246Z,2.53
2022-10-14T14:25:36.144Z,2.58
2022-10-14T14:28:15.403Z,3.30
2022-10-14T14:30:55.107Z,3.00
2022-10-14T14:33:44.235Z,4.78
2022-10-14T14:36:27.853Z,3.50
2022-10-14T14:39:05.383Z,1.95
2022-10-14T14:41:33.309Z,1.67
2022-10-14T14:44:24.673Z,2.40
2022-10-14T14:46:55.564Z,1.80
2022-10-14T14:49:35.815Z,2.83
2022-10-14T14:52:06.703Z,1.60
2022-10-14T14:54:33.873Z,3.70
2022-10-14T14:57:01.073Z,2.30
2022-10-14T14:59:30.057Z,4.57
2022-10-14T15:04:35.689Z,2.20
2022-10-14T15:07:13.254Z,2.17
2022-10-14T15:09:47.189Z,3.92
2022-10-14T15:12:19.989Z,7.00
2022-10-14T15:14:55.569Z,4.95
2022-10-14T15:17:36.233Z,2.03
2022-10-14T15:20:34.012Z,1.38
2022-10-14T15:23:42.787Z,2.55
2022-10-14T15:26:24.030Z,1.48
2022-10-14T15:32:02.299Z,1.45
2022-10-14T15:34:29.435Z,2.88
2022-10-14T15:36:56.797Z,5.63
2022-10-14T15:39:23.930Z,1.33
2022-10-14T15:41:51.044Z,2.25
2022-10-14T15:44:18.109Z,3.10
2022-10-14T15:47:05.029Z,1.38
2022-10-14T15:49:42.043Z,2.17
2022-10-14T15:52:15.936Z,1.58
2022-10-14T15:54:43.965Z,4.68
2022-10-14T15:57:15.562Z,2.33
2022-10-14T15:59:47.017Z,4.05
2022-10-14T16:02:31.033Z,1.40
2022-10-14T16:05:18.821Z,1.17
2022-10-14T16:07:45.660Z,0.90
2022-10-14T16:10:17.052Z,6.03
2022-10-14T16:12:44.164Z,4.40
2022-10-14T16:15:31.052Z,2.25
2022-10-14T16:17:58.440Z,1.83
2022-10-14T16:20:26.934Z,1.30
2022-10-14T16:22:56.980Z,1.73
2022-10-14T16:25:38.942Z,0.93
2022-10-14T16:28:10.059Z,1.98
2022-10-14T16:30:41.271Z,0.95
2022-10-14T16:33:09.313Z,1.10
2022-10-14T16:35:36.382Z,1.75
2022-10-14T16:38:03.462Z,1.17
2022-10-14T16:40:35.733Z,1.95
2022-10-14T16:43:05.989Z,1.70
2022-10-14T16:45:33.391Z,1.08
2022-10-14T16:48:00.803Z,1.77
2022-10-14T16:50:27.853Z,1.98
2022-10-14T16:53:13.750Z,2.97
2022-10-14T16:55:40.755Z,1.25
2022-10-14T16:58:08.313Z,1.70
2022-10-14T17:00:35.429Z,2.70
2022-10-14T17:03:08.054Z,1.13
2022-10-14T17:05:35.479Z,1.30
2022-10-14T17:08:02.649Z,1.70
2022-10-14T17:10:29.767Z,2.03
2022-10-14T17:12:57.567Z,1.45
2022-10-14T17:15:24.977Z,1.58
2022-10-14T17:17:53.620Z,1.67
2022-10-14T17:20:23.036Z,0.88
2022-10-14T17:22:50.099Z,1.05
2022-10-14T17:25:17.850Z,1.00
2022-10-14T17:27:45.019Z,1.30
2022-10-14T17:30:12.781Z,2.05
2022-10-14T17:32:40.592Z,5.43
2022-10-14T17:35:11.363Z,3.72
2022-10-14T17:37:42.550Z,3.63
2022-10-14T17:40:10.225Z,1.20
2022-10-14T17:42:39.397Z,2.40
2022-10-14T17:45:07.929Z,1.60
2022-10-14T17:47:34.971Z,1.20
2022-10-14T17:50:01.993Z,1.90
2022-10-14T17:52:29.150Z,1.23
2022-10-14T17:54:58.957Z,0.98
2022-10-14T17:57:28.389Z,1.70
2022-10-14T17:59:55.484Z,1.85
2022-10-14T18:02:22.447Z,0.68
2022-10-14T18:04:50.587Z,6.47
2022-10-14T18:07:18.867Z,3.88
2022-10-14T18:09:46.346Z,1.40
2022-10-14T18:12:13.608Z,2.05
2022-10-14T18:14:41.574Z,1.05
2022-10-14T18:17:12.460Z,1.33
2022-10-14T18:19:46.102Z,1.15
2022-10-14T18:22:17.162Z,1.48
2022-10-14T18:24:44.268Z,1.80
2022-10-14T18:27:11.595Z,1.40
2022-10-14T18:29:39.318Z,2.80
2022-10-14T18:32:06.301Z,2.88
2022-10-14T18:34:33.738Z,2.17
2022-10-14T18:37:00.926Z,1.55
2022-10-14T18:39:28.025Z,1.55
2022-10-14T18:41:57.519Z,2.28
2022-10-14T18:44:24.663Z,2.22
2022-10-14T18:46:51.670Z,1.58
2022-10-14T18:49:21.202Z,1.80
2022-10-14T18:51:48.890Z,1.42
2022-10-14T18:54:21.425Z,2.33
2022-10-14T18:56:48.413Z,1.60
2022-10-14T18:59:21.456Z,0.90
2022-10-14T19:01:53.635Z,1.42
2022-10-14T19:04:25.670Z,1.02
2022-10-14T19:09:23.972Z,1.33
2022-10-14T19:11:52.614Z,1.15
2022-10-14T19:14:20.707Z,4.07
2022-10-14T19:16:49.533Z,1.40
2022-10-14T19:19:19.578Z,0.85
2022-10-14T19:21:49.854Z,0.43
2022-10-14T19:24:17.557Z,2.72
2022-10-14T19:26:46.667Z,0.65
2022-10-14T19:29:15.664Z,1.20
2022-10-14T19:31:44.068Z,1.17
2022-10-14T19:34:15.241Z,1.63
2022-10-14T19:36:43.371Z,1.13
2022-10-14T19:39:14.780Z,0.80
2022-10-14T19:41:51.003Z,2.05
2022-10-14T19:44:18.182Z,3.63
2022-10-14T19:46:45.800Z,1.35
2022-10-14T19:49:14.585Z,0.55
2022-10-14T19:51:41.705Z,0.60
2022-10-14T19:54:11.976Z,1.13
2022-10-14T19:56:39.273Z,0.60
2022-10-14T19:59:06.272Z,1.00
2022-10-14T20:01:33.412Z,0.70
2022-10-14T20:04:02.445Z,0.60
2022-10-14T20:06:33.852Z,0.93
2022-10-14T20:09:01.408Z,1.05
2022-10-14T20:11:28.993Z,1.63
2022-10-14T20:13:56.458Z,0.80
2022-10-14T20:16:23.670Z,0.40
2022-10-14T20:18:50.705Z,0.88
2022-10-14T20:21:17.854Z,0.88
2022-10-14T20:23:45.274Z,0.28
2022-10-14T20:26:15.509Z,1.38
2022-10-14T20:28:42.781Z,1.20
2022-10-14T20:31:13.660Z,2.45
2022-10-14T20:33:40.935Z,0.50
2022-10-14T20:36:15.500Z,0.77
2022-10-14T20:38:43.655Z,0.20
2022-10-14T20:41:23.305Z,0.80
2022-10-14T20:43:51.431Z,0.50
2022-10-14T20:46:19.315Z,0.95
2022-10-14T20:48:46.409Z,1.00
2022-10-14T20:51:17.578Z,0.52
2022-10-14T20:53:45.054Z,0.80
2022-10-14T20:56:13.975Z,3.13
2022-10-14T20:59:00.173Z,1.50
2022-10-14T21:01:29.553Z,0.47
2022-10-14T21:03:59.639Z,0.70
2022-10-14T21:06:27.019Z,0.75
2022-10-14T21:08:54.622Z,0.65
2022-10-14T21:11:24.080Z,0.63
2022-10-14T21:13:55.021Z,0.50
2022-10-14T21:16:31.083Z,1.70
2022-10-14T21:19:05.215Z,1.65
2022-10-14T21:21:37.716Z,1.13
2022-10-14T21:24:05.518Z,0.50
2022-10-14T21:26:32.564Z,0.43
2022-10-14T21:29:02.377Z,0.32
2022-10-14T21:31:30.420Z,0.50
2022-10-14T21:34:05.010Z,0.70
2022-10-14T21:36:34.545Z,0.68
2022-10-14T21:39:12.589Z,4.68
2022-10-14T21:41:40.668Z,1.25
2022-10-14T21:44:09.257Z,2.35
2022-10-14T21:46:50.046Z,1.58
2022-10-14T21:49:19.474Z,1.15
2022-10-14T21:52:02.916Z,5.28
2022-10-14T21:54:44.302Z,0.70
2022-10-14T21:57:35.538Z,1.13
2022-10-14T22:00:13.983Z,1.25
2022-10-14T22:02:40.981Z,1.58
2022-10-14T22:05:08.537Z,0.75
2022-10-14T22:07:35.800Z,1.70
2022-10-14T22:10:02.766Z,0.30
2022-10-14T22:12:30.368Z,0.65
2022-10-14T22:14:57.371Z,0.50
2022-10-14T22:17:24.612Z,1.05
2022-10-14T22:19:51.959Z,0.55
2022-10-14T22:22:18.942Z,1.00
2022-10-14T22:24:46.009Z,0.55
2022-10-14T22:27:13.124Z,0.80
2022-10-14T22:29:40.192Z,2.53
2022-10-14T22:32:07.194Z,2.30
2022-10-14T22:34:34.269Z,0.98
2022-10-14T22:37:01.801Z,0.65
2022-10-14T22:39:28.777Z,0.80
2022-10-14T22:41:55.839Z,1.73
2022-10-14T22:44:22.914Z,0.73
2022-10-14T22:46:49.922Z,0.70
2022-10-14T22:49:16.914Z,0.75
2022-10-14T22:51:43.879Z,0.68
2022-10-14T22:54:11.352Z,0.93
2022-10-14T22:56:38.962Z,2.35
2022-10-14T22:59:09.622Z,0.38
2022-10-14T23:01:37.940Z,0.60
2022-10-14T23:04:05.535Z,0.55
2022-10-14T23:06:32.652Z,1.60
2022-10-14T23:09:00.535Z,0.70
2022-10-14T23:11:29.881Z,0.30
2022-10-14T23:13:59.108Z,0.85
2022-10-14T23:16:29.037Z,0.45
2022-10-14T23:18:58.277Z,0.55
2022-10-14T23:21:29.411Z,0.32
2022-10-14T23:24:00.553Z,0.43
2022-10-14T23:26:31.756Z,0.38
2022-10-14T23:29:00.596Z,0.60
2022-10-14T23:31:31.890Z,3.13
2022-10-14T23:34:01.622Z,0.88
2022-10-14T23:36:29.103Z,0.68
2022-10-14T23:38:58.219Z,0.17
2022-10-14T23:41:25.648Z,0.22
2022-10-14T23:43:53.169Z,0.43
2022-10-14T23:46:20.908Z,0.15
2022-10-14T23:48:55.798Z,0.65
2022-10-14T23:51:34.285Z,3.88
2022-10-14T23:54:01.357Z,0.13
2022-10-14T23:56:28.404Z,0.57
2022-10-14T23:58:55.435Z,0.57
